Time;durP1;ratioP1;P1;durP2;ratioP2;P2;SDS_P1;SDS_P2;PMS_P1;PMS_P2;Temp;Humidity;BMP_temperature;BMP_pressure;BME280_temperature;BME280_humidity;BME280_pressure;Samples;Min_cycle;Max_cycle;Signal;HPM_P1;HPM_P2
2022/05/20 00:00:08;;;;;;;19.33;17.50;;;;;;;;;;5064967;28;20460;-70
2022/05/20 00:02:38;;;;;;;18.60;16.70;;;;;;;;;;5062518;28;20494;-71
2022/05/20 00:05:07;;;;;;;21.00;19.00;;;;;;;;;;5065498;28;20928;-70
2022/05/20 00:07:39;;;;;;;20.33;18.23;;;;;;;;;;5063132;28;20457;-71
2022/05/20 00:10:08;;;;;;;20.90;18.90;;;;;;;;;;5058476;28;20704;-71
2022/05/20 00:12:36;;;;;;;21.50;18.30;;;;;;;;;;5058290;28;20454;-70
2022/05/20 00:15:04;;;;;;;21.30;19.00;;;;;;;;;;5064371;28;20465;-70
2022/05/20 00:17:33;;;;;;;22.47;19.10;;;;;;;;;;5070073;28;20904;-70
2022/05/20 00:20:07;;;;;;;19.50;17.60;;;;;;;;;;5067544;28;20892;-72
2022/05/20 00:22:41;;;;;;;23.97;21.57;;;;;;;;;;5063949;28;20457;-71
2022/05/20 00:27:55;;;;;;;22.13;19.17;;;;;;;;;;5055960;28;20459;-71
2022/05/20 00:30:23;;;;;;;20.10;17.80;;;;;;;;;;5065187;28;20741;-71
2022/05/20 00:32:50;;;;;;;18.77;16.87;;;;;;;;;;5057374;28;20480;-71
2022/05/20 00:35:18;;;;;;;22.17;19.87;;;;;;;;;;5056685;28;20776;-70
2022/05/20 00:37:47;;;;;;;22.70;18.57;;;;;;;;;;5056854;28;20611;-71
2022/05/20 00:40:17;;;;;;;19.07;17.17;;;;;;;;;;5056682;28;20458;-70
2022/05/20 00:42:45;;;;;;;19.40;17.33;;;;;;;;;;5061061;28;20453;-70
2022/05/20 00:45:13;;;;;;;20.07;18.00;;;;;;;;;;5066976;28;20589;-70
2022/05/20 00:47:42;;;;;;;20.47;18.37;;;;;;;;;;5056090;28;20492;-70
2022/05/20 00:50:11;;;;;;;20.20;18.10;;;;;;;;;;5057056;28;20545;-70
2022/05/20 00:52:40;;;;;;;20.10;18.00;;;;;;;;;;5067659;28;20467;-70
2022/05/20 00:55:16;;;;;;;19.50;17.50;;;;;;;;;;5060043;28;20488;-70
2022/05/20 00:57:47;;;;;;;19.80;17.77;;;;;;;;;;5056385;28;21254;-70
2022/05/20 01:00:18;;;;;;;18.87;16.83;;;;;;;;;;5064467;28;20567;-70
2022/05/20 01:02:48;;;;;;;17.07;15.40;;;;;;;;;;5056443;28;20906;-70
2022/05/20 01:05:18;;;;;;;17.57;15.37;;;;;;;;;;5072919;28;20513;-70
2022/05/20 01:07:47;;;;;;;16.90;14.83;;;;;;;;;;5056500;28;20458;-70
2022/05/20 01:10:16;;;;;;;16.97;15.27;;;;;;;;;;5063427;28;20465;-71
2022/05/20 01:12:43;;;;;;;16.37;14.67;;;;;;;;;;5065561;28;20456;-70
2022/05/20 01:15:12;;;;;;;17.23;15.57;;;;;;;;;;5070380;28;20533;-71
2022/05/20 01:17:40;;;;;;;18.07;14.73;;;;;;;;;;5075173;28;20456;-71
2022/05/20 01:20:09;;;;;;;17.63;15.83;;;;;;;;;;5061644;28;20456;-71
2022/05/20 01:22:48;;;;;;;17.57;15.80;;;;;;;;;;5064068;28;20543;-70
2022/05/20 01:25:18;;;;;;;17.80;14.47;;;;;;;;;;5062383;28;20468;-71
2022/05/20 01:27:46;;;;;;;16.90;15.30;;;;;;;;;;5056464;28;20461;-71
2022/05/20 01:30:15;;;;;;;19.57;15.20;;;;;;;;;;5066238;28;20512;-70
2022/05/20 01:32:43;;;;;;;15.60;14.00;;;;;;;;;;5065702;28;20457;-71
2022/05/20 01:35:13;;;;;;;16.20;14.50;;;;;;;;;;5055292;28;20515;-69
2022/05/20 01:37:42;;;;;;;15.90;14.37;;;;;;;;;;5055905;28;20527;-71
2022/05/20 01:40:11;;;;;;;15.80;14.20;;;;;;;;;;5069165;28;20444;-71
2022/05/20 01:42:41;;;;;;;15.60;13.83;;;;;;;;;;5058008;28;20513;-70
2022/05/20 01:45:12;;;;;;;16.70;14.60;;;;;;;;;;5057594;28;20454;-71
2022/05/20 01:47:41;;;;;;;16.47;14.17;;;;;;;;;;5063357;28;20457;-70
2022/05/20 01:50:14;;;;;;;16.80;14.57;;;;;;;;;;5064054;28;20449;-71
2022/05/20 01:52:49;;;;;;;15.63;13.90;;;;;;;;;;5056607;28;20461;-71
2022/05/20 01:55:18;;;;;;;14.70;13.00;;;;;;;;;;5055250;28;20460;-71
2022/05/20 01:57:49;;;;;;;16.27;14.07;;;;;;;;;;5064110;28;20461;-71
2022/05/20 02:00:21;;;;;;;18.53;14.37;;;;;;;;;;5062934;28;22119;-71
2022/05/20 02:02:51;;;;;;;15.57;13.97;;;;;;;;;;5063537;28;20456;-70
2022/05/20 02:05:22;;;;;;;16.03;14.53;;;;;;;;;;5071818;28;20531;-70
2022/05/20 02:07:53;;;;;;;15.03;12.87;;;;;;;;;;5066652;28;20446;-71
2022/05/20 02:10:24;;;;;;;16.57;14.17;;;;;;;;;;5071754;28;20468;-70
2022/05/20 02:12:56;;;;;;;19.00;15.10;;;;;;;;;;5071447;28;20461;-70
2022/05/20 02:15:27;;;;;;;14.00;12.60;;;;;;;;;;5063348;28;20553;-70
2022/05/20 02:17:56;;;;;;;14.20;12.80;;;;;;;;;;5071434;28;20464;-70
2022/05/20 02:20:27;;;;;;;16.67;12.37;;;;;;;;;;5078546;28;20449;-71
2022/05/20 02:23:02;;;;;;;14.50;11.77;;;;;;;;;;5062450;28;20453;-71
2022/05/20 02:25:31;;;;;;;17.43;13.13;;;;;;;;;;5063178;28;20917;-70
2022/05/20 02:28:00;;;;;;;14.90;11.77;;;;;;;;;;5070525;28;20452;-70
2022/05/20 02:30:31;;;;;;;16.50;12.10;;;;;;;;;;5078398;28;20467;-71
2022/05/20 02:33:05;;;;;;;17.87;13.17;;;;;;;;;;5071659;28;20449;-70
2022/05/20 02:35:33;;;;;;;15.87;13.03;;;;;;;;;;5059750;28;20453;-70
2022/05/20 02:38:16;;;;;;;19.43;9.87;;;;;;;;;;5075342;28;20860;-70
2022/05/20 02:40:46;;;;;;;15.97;12.07;;;;;;;;;;5062313;28;20448;-71
2022/05/20 02:43:14;;;;;;;19.20;11.43;;;;;;;;;;5076754;28;20482;-71
2022/05/20 02:45:43;;;;;;;13.30;11.90;;;;;;;;;;5067438;28;20457;-71
2022/05/20 02:48:11;;;;;;;16.83;12.20;;;;;;;;;;5058694;28;20733;-71
2022/05/20 02:50:38;;;;;;;15.23;11.43;;;;;;;;;;5058382;28;20468;-70
2022/05/20 02:53:07;;;;;;;15.07;12.80;;;;;;;;;;5059221;28;20456;-70
2022/05/20 02:55:35;;;;;;;11.57;10.37;;;;;;;;;;5070196;28;20449;-70
2022/05/20 02:58:04;;;;;;;15.70;11.00;;;;;;;;;;5063123;28;20454;-71
2022/05/20 03:06:17;;;;;;;12.77;11.40;;;;;;;;;;4996782;28;20567;-70
2022/05/20 03:08:46;;;;;;;11.70;10.50;;;;;;;;;;5007952;28;20454;-71
2022/05/20 03:11:13;;;;;;;12.90;11.07;;;;;;;;;;5035748;28;20452;-70
2022/05/20 03:13:43;;;;;;;11.30;9.70;;;;;;;;;;5058494;28;20904;-71
2022/05/20 03:16:17;;;;;;;17.13;11.33;;;;;;;;;;5065378;28;20457;-71
2022/05/20 03:18:45;;;;;;;13.93;11.00;;;;;;;;;;5067777;28;20448;-71
2022/05/20 03:21:12;;;;;;;13.03;10.10;;;;;;;;;;5063164;28;20522;-71
2022/05/20 03:23:40;;;;;;;10.37;9.27;;;;;;;;;;5058466;28;20453;-71
2022/05/20 03:26:07;;;;;;;12.27;9.80;;;;;;;;;;5063391;28;20489;-70
2022/05/20 03:28:35;;;;;;;14.20;10.90;;;;;;;;;;5076251;28;20449;-71
2022/05/20 03:31:09;;;;;;;13.70;9.90;;;;;;;;;;5058146;28;20781;-70
2022/05/20 03:33:37;;;;;;;11.87;10.60;;;;;;;;;;5058281;28;20496;-71
2022/05/20 03:36:08;;;;;;;12.57;10.10;;;;;;;;;;5077583;28;20457;-70
2022/05/20 03:38:36;;;;;;;13.10;11.80;;;;;;;;;;5059962;28;20461;-71
2022/05/20 03:41:04;;;;;;;12.33;10.07;;;;;;;;;;5058350;28;20482;-71
2022/05/20 03:43:33;;;;;;;12.47;11.20;;;;;;;;;;5057330;28;20449;-71
2022/05/20 03:46:03;;;;;;;12.83;11.37;;;;;;;;;;5072829;28;20445;-71
2022/05/20 03:48:32;;;;;;;13.83;11.17;;;;;;;;;;5065127;28;20536;-69
2022/05/20 03:51:08;;;;;;;14.67;11.87;;;;;;;;;;5068348;28;20518;-71
2022/05/20 03:53:36;;;;;;;14.57;11.00;;;;;;;;;;5068007;28;20448;-71
2022/05/20 03:56:07;;;;;;;13.60;10.73;;;;;;;;;;5065712;28;20449;-70
2022/05/20 03:58:35;;;;;;;15.73;11.60;;;;;;;;;;5064272;28;20522;-70
2022/05/20 04:03:56;;;;;;;13.17;9.67;;;;;;;;;;5067273;28;20545;-70
2022/05/20 04:06:24;;;;;;;10.00;8.10;;;;;;;;;;5062788;28;20538;-70
2022/05/20 04:08:51;;;;;;;8.70;7.17;;;;;;;;;;5066166;28;20476;-71
2022/05/20 04:11:19;;;;;;;8.33;7.20;;;;;;;;;;5068378;28;20506;-70
2022/05/20 04:13:47;;;;;;;8.50;6.53;;;;;;;;;;5075576;28;20461;-70
2022/05/20 04:16:15;;;;;;;6.90;5.90;;;;;;;;;;5056686;28;20477;-71
2022/05/20 04:18:43;;;;;;;6.83;5.13;;;;;;;;;;5064645;28;20733;-71
2022/05/20 04:21:15;;;;;;;9.50;4.50;;;;;;;;;;5072821;28;20454;-71
2022/05/20 04:23:46;;;;;;;5.30;4.30;;;;;;;;;;5069796;28;20510;-70
2022/05/20 04:26:21;;;;;;;4.50;3.57;;;;;;;;;;5057265;28;20450;-71
2022/05/20 04:28:53;;;;;;;6.40;4.00;;;;;;;;;;5056170;28;20453;-72
2022/05/20 04:31:20;;;;;;;7.30;4.40;;;;;;;;;;5072824;28;20434;-70
2022/05/20 04:33:49;;;;;;;6.50;3.90;;;;;;;;;;5064552;28;20870;-70
2022/05/20 04:36:18;;;;;;;5.17;3.70;;;;;;;;;;5056980;28;21098;-69
2022/05/20 04:38:46;;;;;;;5.50;3.07;;;;;;;;;;5056178;28;20811;-69
2022/05/20 04:49:33;;;;;;;5.03;3.23;;;;;;;;;;5056612;28;20495;-71
2022/05/20 04:52:44;;;;;;;7.10;3.00;;;;;;;;;;5061325;28;20465;-71
2022/05/20 04:55:13;;;;;;;5.10;2.67;;;;;;;;;;4982066;28;20460;-71
2022/05/20 04:57:46;;;;;;;3.37;2.60;;;;;;;;;;5055566;28;20463;-70
2022/05/20 05:00:15;;;;;;;3.80;2.80;;;;;;;;;;5057771;28;20466;-71
2022/05/20 05:02:43;;;;;;;6.23;3.50;;;;;;;;;;5061817;28;20452;-71
2022/05/20 05:05:13;;;;;;;4.77;3.30;;;;;;;;;;5062768;28;20572;-71
2022/05/20 05:07:42;;;;;;;5.90;3.20;;;;;;;;;;5062343;28;20537;-70
2022/05/20 05:10:18;;;;;;;6.13;2.60;;;;;;;;;;5062321;28;20537;-71
2022/05/20 05:12:45;;;;;;;6.97;3.30;;;;;;;;;;5061348;28;20487;-71
2022/05/20 05:15:14;;;;;;;5.30;2.90;;;;;;;;;;5062594;28;20457;-71
2022/05/20 05:20:32;;;;;;;4.93;2.80;;;;;;;;;;5056626;28;20580;-70
2022/05/20 05:23:03;;;;;;;5.70;3.10;;;;;;;;;;5065151;28;20458;-70
2022/05/20 05:25:51;;;;;;;7.50;3.03;;;;;;;;;;5061849;28;20480;-71
2022/05/20 05:28:21;;;;;;;4.60;3.20;;;;;;;;;;5061099;28;20484;-70
2022/05/20 05:30:53;;;;;;;6.47;3.47;;;;;;;;;;5062215;28;20469;-71
2022/05/20 05:33:24;;;;;;;3.70;3.00;;;;;;;;;;5066512;28;20456;-70
2022/05/20 05:36:01;;;;;;;4.40;3.23;;;;;;;;;;5055405;28;20476;-70
2022/05/20 05:38:31;;;;;;;4.53;2.87;;;;;;;;;;5057718;28;20450;-71
2022/05/20 05:41:01;;;;;;;5.60;2.90;;;;;;;;;;5062391;28;20465;-70
2022/05/20 05:43:30;;;;;;;7.37;4.10;;;;;;;;;;5065187;28;20460;-71
2022/05/20 05:46:02;;;;;;;4.90;2.57;;;;;;;;;;5064773;28;20450;-71
2022/05/20 05:48:29;;;;;;;6.13;2.97;;;;;;;;;;5075272;28;20484;-72
2022/05/20 05:50:57;;;;;;;3.67;2.47;;;;;;;;;;5057289;28;20460;-71
2022/05/20 05:53:28;;;;;;;3.80;2.73;;;;;;;;;;5056615;28;20469;-72
2022/05/20 05:55:57;;;;;;;6.40;3.10;;;;;;;;;;5068945;28;20556;-71
2022/05/20 05:58:25;;;;;;;7.03;3.60;;;;;;;;;;5065666;28;20449;-70
2022/05/20 06:00:55;;;;;;;5.80;2.70;;;;;;;;;;5058020;28;20457;-70
2022/05/20 06:03:26;;;;;;;5.27;1.87;;;;;;;;;;5066451;28;20750;-71
2022/05/20 06:05:57;;;;;;;9.60;2.60;;;;;;;;;;5074087;28;20521;-71
2022/05/20 06:08:25;;;;;;;3.13;2.20;;;;;;;;;;5064320;28;20473;-71
2022/05/20 06:10:53;;;;;;;3.67;2.50;;;;;;;;;;5057049;28;20472;-71
2022/05/20 06:13:25;;;;;;;4.53;2.30;;;;;;;;;;5055587;28;20897;-71
2022/05/20 06:15:55;;;;;;;6.03;4.47;;;;;;;;;;5065941;28;20491;-72
2022/05/20 06:18:23;;;;;;;9.30;2.80;;;;;;;;;;5066617;28;20445;-71
2022/05/20 06:20:51;;;;;;;4.67;2.60;;;;;;;;;;5058500;28;20493;-69
2022/05/20 06:23:19;;;;;;;3.93;1.90;;;;;;;;;;5069136;28;20441;-70
2022/05/20 06:25:47;;;;;;;8.03;2.80;;;;;;;;;;5075512;28;20465;-71
2022/05/20 06:28:16;;;;;;;5.40;2.73;;;;;;;;;;5056929;28;20473;-70
2022/05/20 06:30:44;;;;;;;5.20;2.73;;;;;;;;;;5056330;28;20453;-70
2022/05/20 06:33:14;;;;;;;4.03;2.70;;;;;;;;;;5064034;28;20457;-71
2022/05/20 06:41:12;;;;;;;6.10;3.40;;;;;;;;;;5060824;28;20472;-71
2022/05/20 06:43:40;;;;;;;3.70;2.70;;;;;;;;;;5061310;28;20461;-70
2022/05/20 06:46:08;;;;;;;4.33;3.10;;;;;;;;;;5058535;28;20797;-71
2022/05/20 06:48:41;;;;;;;5.10;2.70;;;;;;;;;;5069492;28;20509;-70
2022/05/20 06:51:09;;;;;;;6.53;2.77;;;;;;;;;;5066654;28;20568;-72
2022/05/20 06:53:38;;;;;;;7.13;2.80;;;;;;;;;;5060752;28;20453;-71
2022/05/20 06:56:09;;;;;;;5.33;3.17;;;;;;;;;;5059861;28;20889;-71
2022/05/20 06:58:43;;;;;;;7.53;2.20;;;;;;;;;;5068226;28;20521;-71
2022/05/20 07:01:10;;;;;;;5.90;2.50;;;;;;;;;;5071166;28;20448;-71
2022/05/20 07:03:42;;;;;;;4.90;2.43;;;;;;;;;;5066890;28;20464;-71
2022/05/20 07:06:11;;;;;;;4.03;2.47;;;;;;;;;;5066846;28;20551;-71
2022/05/20 07:08:38;;;;;;;7.63;2.87;;;;;;;;;;5063400;28;20783;-70
2022/05/20 07:11:08;;;;;;;5.80;2.40;;;;;;;;;;5064531;28;20461;-70
2022/05/20 07:13:35;;;;;;;5.07;2.50;;;;;;;;;;5076831;28;20448;-69
2022/05/20 07:16:05;;;;;;;5.63;2.60;;;;;;;;;;5064004;28;20558;-69
2022/05/20 07:18:34;;;;;;;5.03;2.60;;;;;;;;;;5064016;28;21105;-71
2022/05/20 07:21:04;;;;;;;5.40;2.90;;;;;;;;;;5063787;28;20480;-71
2022/05/20 07:23:35;;;;;;;6.67;2.47;;;;;;;;;;5055832;28;20540;-71
2022/05/20 07:26:04;;;;;;;3.80;2.70;;;;;;;;;;5062964;28;20480;-71
2022/05/20 07:28:32;;;;;;;4.63;2.53;;;;;;;;;;5069967;28;20579;-71
2022/05/20 07:31:00;;;;;;;3.10;2.33;;;;;;;;;;5060127;28;20543;-70
2022/05/20 07:33:30;;;;;;;5.70;3.40;;;;;;;;;;5055345;28;20554;-71
2022/05/20 07:35:59;;;;;;;7.83;2.40;;;;;;;;;;5071796;28;20524;-71
2022/05/20 07:38:30;;;;;;;5.83;3.53;;;;;;;;;;5061197;28;20464;-71
2022/05/20 07:41:05;;;;;;;6.60;2.40;;;;;;;;;;5055789;28;20540;-72
2022/05/20 07:43:38;;;;;;;3.77;2.70;;;;;;;;;;5061095;28;20464;-72
2022/05/20 07:46:07;;;;;;;6.23;2.63;;;;;;;;;;5062193;28;20713;-71
2022/05/20 07:48:35;;;;;;;3.70;2.30;;;;;;;;;;5063942;28;20543;-71
2022/05/20 07:51:04;;;;;;;4.10;2.50;;;;;;;;;;5064647;28;20458;-71
2022/05/20 07:53:35;;;;;;;4.63;2.40;;;;;;;;;;5062835;28;20453;-71
2022/05/20 07:56:08;;;;;;;9.60;5.17;;;;;;;;;;5065501;28;20449;-70
2022/05/20 07:58:38;;;;;;;4.97;2.33;;;;;;;;;;5066252;28;20464;-70
2022/05/20 08:01:06;;;;;;;3.37;2.37;;;;;;;;;;5065893;28;20456;-70
2022/05/20 08:06:20;;;;;;;2.77;1.87;;;;;;;;;;5062495;28;20563;-68
2022/05/20 08:08:50;;;;;;;4.10;2.80;;;;;;;;;;5060544;28;20472;-70
2022/05/20 08:11:23;;;;;;;7.23;3.33;;;;;;;;;;5076085;28;20944;-71
2022/05/20 08:13:53;;;;;;;4.60;2.40;;;;;;;;;;5061405;28;21010;-69
2022/05/20 08:16:27;;;;;;;3.53;2.00;;;;;;;;;;5054339;28;20481;-69
2022/05/20 08:19:04;;;;;;;5.17;1.70;;;;;;;;;;5064269;28;20840;-69
2022/05/20 08:21:42;;;;;;;4.07;2.67;;;;;;;;;;5078847;28;20463;-69
2022/05/20 08:24:15;;;;;;;5.90;2.60;;;;;;;;;;5065311;28;20457;-70
2022/05/20 08:26:47;;;;;;;4.30;2.33;;;;;;;;;;5069982;28;20534;-70
2022/05/20 08:29:16;;;;;;;3.00;2.00;;;;;;;;;;5066044;28;20885;-70
2022/05/20 08:31:44;;;;;;;3.77;1.77;;;;;;;;;;5066217;28;20547;-71
2022/05/20 08:34:14;;;;;;;5.50;2.17;;;;;;;;;;5062444;28;20460;-72
2022/05/20 08:36:42;;;;;;;4.40;2.10;;;;;;;;;;5064591;28;20456;-71
2022/05/20 08:39:14;;;;;;;4.87;2.83;;;;;;;;;;5067683;28;20460;-71
2022/05/20 08:41:46;;;;;;;9.80;3.20;;;;;;;;;;5078749;28;20468;-69
2022/05/20 08:44:16;;;;;;;6.33;2.83;;;;;;;;;;5061452;28;20467;-72
2022/05/20 08:46:49;;;;;;;4.17;2.33;;;;;;;;;;5061961;28;20508;-71
2022/05/20 08:49:19;;;;;;;3.80;2.10;;;;;;;;;;5067112;28;20572;-71
2022/05/20 08:51:50;;;;;;;4.37;2.60;;;;;;;;;;5066412;28;20938;-70
2022/05/20 08:54:20;;;;;;;3.50;2.13;;;;;;;;;;5065413;28;20459;-71
2022/05/20 08:57:06;;;;;;;4.30;2.87;;;;;;;;;;5059732;28;20471;-70
2022/05/20 08:59:36;;;;;;;7.07;3.30;;;;;;;;;;5086142;28;20455;-71
2022/05/20 09:02:04;;;;;;;4.33;2.53;;;;;;;;;;5056449;28;20918;-70
2022/05/20 09:04:33;;;;;;;5.73;2.10;;;;;;;;;;5066190;28;20529;-71
2022/05/20 09:07:02;;;;;;;4.00;2.20;;;;;;;;;;5052876;28;20722;-71
2022/05/20 09:09:43;;;;;;;8.63;2.30;;;;;;;;;;5060401;28;20480;-71
2022/05/20 09:12:14;;;;;;;4.20;2.57;;;;;;;;;;5057415;28;20539;-70
2022/05/20 09:17:42;;;;;;;3.47;2.27;;;;;;;;;;5052660;28;20514;-72
2022/05/20 09:20:14;;;;;;;5.90;2.30;;;;;;;;;;5061444;28;20475;-70
2022/05/20 09:22:57;;;;;;;6.77;2.60;;;;;;;;;;5069817;28;20449;-71
2022/05/20 09:25:28;;;;;;;3.67;2.30;;;;;;;;;;5058185;28;20471;-71
2022/05/20 09:28:15;;;;;;;7.90;2.87;;;;;;;;;;5060805;28;20498;-73
2022/05/20 09:30:49;;;;;;;6.53;1.90;;;;;;;;;;5068008;28;20465;-70
2022/05/20 09:33:21;;;;;;;2.53;1.80;;;;;;;;;;5061014;28;20564;-71
2022/05/20 09:35:56;;;;;;;3.90;2.10;;;;;;;;;;5064809;28;20453;-71
2022/05/20 09:38:38;;;;;;;2.80;1.60;;;;;;;;;;5052705;28;20563;-71
2022/05/20 09:41:16;;;;;;;5.00;1.70;;;;;;;;;;5061623;28;20935;-72
2022/05/20 09:43:47;;;;;;;5.07;2.40;;;;;;;;;;5063870;28;20877;-75
2022/05/20 09:46:33;;;;;;;4.30;1.60;;;;;;;;;;5063492;28;20583;-71
2022/05/20 09:49:08;;;;;;;4.53;2.37;;;;;;;;;;5060571;28;20573;-71
2022/05/20 09:51:39;;;;;;;4.60;1.90;;;;;;;;;;5065258;28;20464;-73
2022/05/20 09:54:24;;;;;;;3.00;1.90;;;;;;;;;;5067778;28;20460;-73
2022/05/20 09:57:07;;;;;;;6.50;1.93;;;;;;;;;;5061238;28;20517;-72
2022/05/20 09:59:39;;;;;;;4.50;1.80;;;;;;;;;;5065048;28;20449;-70
2022/05/20 10:02:16;;;;;;;3.13;1.80;;;;;;;;;;5052538;28;20489;-72
2022/05/20 10:04:47;;;;;;;4.73;1.63;;;;;;;;;;5060586;28;20464;-72
2022/05/20 10:07:23;;;;;;;6.40;1.93;;;;;;;;;;5059055;28;20521;-72
2022/05/20 10:09:58;;;;;;;3.87;2.03;;;;;;;;;;5068289;28;20502;-73
2022/05/20 10:12:30;;;;;;;6.07;1.40;;;;;;;;;;5059467;28;20560;-72
2022/05/20 10:15:03;;;;;;;3.27;1.80;;;;;;;;;;5061061;28;20507;-72
2022/05/20 10:17:38;;;;;;;4.80;2.10;;;;;;;;;;5061134;28;20522;-72
2022/05/20 10:20:09;;;;;;;5.30;1.90;;;;;;;;;;5072919;28;20462;-70
2022/05/20 10:22:47;;;;;;;4.50;1.67;;;;;;;;;;5061848;28;20522;-72
2022/05/20 10:25:24;;;;;;;4.03;1.63;;;;;;;;;;5060901;28;20465;-71
2022/05/20 10:27:57;;;;;;;3.90;1.47;;;;;;;;;;5052521;28;20467;-72
2022/05/20 10:33:30;;;;;;;3.90;1.63;;;;;;;;;;5062552;28;20434;-73
2022/05/20 10:36:09;;;;;;;3.90;1.70;;;;;;;;;;5060227;28;20534;-71
2022/05/20 10:38:50;;;;;;;4.23;1.10;;;;;;;;;;5063709;28;20480;-69
2022/05/20 10:41:22;;;;;;;4.33;1.47;;;;;;;;;;5060860;28;20453;-72
2022/05/20 10:49:46;;;;;;;3.73;1.57;;;;;;;;;;5067360;28;20931;-72
2022/05/20 10:52:20;;;;;;;2.20;1.50;;;;;;;;;;5062230;28;20946;-72
2022/05/20 10:55:07;;;;;;;5.20;2.80;;;;;;;;;;5058369;28;20486;-71
2022/05/20 10:58:01;;;;;;;2.90;1.60;;;;;;;;;;5064507;28;20904;-71
2022/05/20 11:00:39;;;;;;;4.30;1.50;;;;;;;;;;5067647;28;20467;-72
2022/05/20 11:03:20;;;;;;;3.97;1.53;;;;;;;;;;5063956;28;20572;-70
2022/05/20 11:06:14;;;;;;;4.20;1.40;;;;;;;;;;5060224;28;20503;-72
2022/05/20 11:08:51;;;;;;;4.33;1.70;;;;;;;;;;4996495;28;20484;-72
2022/05/20 11:11:35;;;;;;;2.50;1.30;;;;;;;;;;5064920;28;20474;-71
2022/05/20 11:14:12;;;;;;;3.30;1.63;;;;;;;;;;5056605;28;20452;-70
2022/05/20 11:16:53;;;;;;;3.83;1.67;;;;;;;;;;5054752;28;20485;-70
2022/05/20 11:19:49;;;;;;;7.27;4.33;;;;;;;;;;5067907;28;20455;-70
2022/05/20 11:22:42;;;;;;;2.97;1.40;;;;;;;;;;4988248;28;20588;-70
2022/05/20 11:25:15;;;;;;;2.90;1.40;;;;;;;;;;5003426;28;20461;-70
2022/05/20 11:27:59;;;;;;;3.07;1.40;;;;;;;;;;5057067;28;20467;-71
2022/05/20 11:30:39;;;;;;;4.80;1.60;;;;;;;;;;5060750;28;20589;-71
2022/05/20 11:33:14;;;;;;;3.10;1.43;;;;;;;;;;5062851;28;20448;-71
2022/05/20 11:36:05;;;;;;;5.07;1.20;;;;;;;;;;5066668;28;20456;-71
2022/05/20 11:38:40;;;;;;;2.77;1.40;;;;;;;;;;5064626;28;20531;-69
2022/05/20 11:41:22;;;;;;;3.83;1.67;;;;;;;;;;5065681;28;20485;-69
2022/05/20 11:44:09;;;;;;;5.40;1.60;;;;;;;;;;5067574;28;21089;-71
2022/05/20 11:46:45;;;;;;;2.90;1.20;;;;;;;;;;5063764;28;20490;-70
2022/05/20 11:49:21;;;;;;;4.53;1.43;;;;;;;;;;5059825;28;20484;-69
2022/05/20 11:52:01;;;;;;;3.50;1.80;;;;;;;;;;5067625;28;20460;-70
2022/05/20 11:54:32;;;;;;;5.00;1.40;;;;;;;;;;5061249;28;20509;-70
2022/05/20 11:57:03;;;;;;;4.93;1.40;;;;;;;;;;5056049;28;20565;-71
2022/05/20 11:59:33;;;;;;;3.70;2.10;;;;;;;;;;5059337;28;20433;-70
2022/05/20 12:02:03;;;;;;;4.90;1.40;;;;;;;;;;5061406;28;20788;-71
2022/05/20 12:04:33;;;;;;;5.23;2.13;;;;;;;;;;5070705;28;20445;-71
2022/05/20 12:07:02;;;;;;;3.23;1.70;;;;;;;;;;5053895;28;20481;-72
2022/05/20 12:09:35;;;;;;;6.60;1.77;;;;;;;;;;5060153;28;20482;-70
2022/05/20 12:12:16;;;;;;;3.20;1.00;;;;;;;;;;5053807;28;20492;-70
2022/05/20 12:15:01;;;;;;;2.80;1.47;;;;;;;;;;5070990;28;20490;-72
2022/05/20 12:17:35;;;;;;;4.20;2.37;;;;;;;;;;5055230;28;20461;-71
2022/05/20 12:25:50;;;;;;;3.87;1.50;;;;;;;;;;5067276;28;20489;-71
2022/05/20 12:28:31;;;;;;;3.63;1.30;;;;;;;;;;5063147;28;20444;-71
2022/05/20 12:31:06;;;;;;;4.93;2.23;;;;;;;;;;5054662;28;20548;-71
2022/05/20 12:33:53;;;;;;;4.00;2.00;;;;;;;;;;5054671;28;20808;-71
2022/05/20 12:36:24;;;;;;;2.37;1.33;;;;;;;;;;5061339;28;20717;-72
2022/05/20 12:38:52;;;;;;;2.80;1.60;;;;;;;;;;5062411;28;20919;-70
2022/05/20 12:41:34;;;;;;;3.83;1.80;;;;;;;;;;5056763;28;20488;-71
2022/05/20 12:44:25;;;;;;;2.93;1.60;;;;;;;;;;5059497;28;20982;-72
2022/05/20 12:47:01;;;;;;;3.63;1.20;;;;;;;;;;5059964;28;20871;-71
2022/05/20 12:49:36;;;;;;;5.53;1.90;;;;;;;;;;5066995;28;20630;-71
2022/05/20 12:52:15;;;;;;;31.70;24.67;;;;;;;;;;5054169;28;21013;-70
2022/05/20 12:54:44;;;;;;;7.40;4.70;;;;;;;;;;5057466;28;20558;-70
2022/05/20 12:57:22;;;;;;;4.33;1.73;;;;;;;;;;5063510;28;20535;-71
2022/05/20 12:59:51;;;;;;;3.80;1.70;;;;;;;;;;5061817;28;20461;-70
2022/05/20 13:02:29;;;;;;;2.80;1.67;;;;;;;;;;5067668;28;20549;-72
2022/05/20 13:05:07;;;;;;;2.57;1.43;;;;;;;;;;5065814;28;20464;-70
2022/05/20 13:07:45;;;;;;;7.33;2.23;;;;;;;;;;5059191;28;20468;-71
2022/05/20 13:10:33;;;;;;;4.33;1.80;;;;;;;;;;5062903;28;20484;-71
2022/05/20 13:13:05;;;;;;;3.90;1.93;;;;;;;;;;5068856;28;20449;-69
2022/05/20 13:15:34;;;;;;;7.20;3.97;;;;;;;;;;5062482;28;20452;-70
2022/05/20 13:18:08;;;;;;;2.90;2.40;;;;;;;;;;5060659;28;20470;-71
2022/05/20 13:20:46;;;;;;;6.10;1.80;;;;;;;;;;5069185;28;20542;-70
2022/05/20 13:23:26;;;;;;;4.00;2.90;;;;;;;;;;5058987;28;20463;-71
2022/05/20 13:25:56;;;;;;;4.73;3.00;;;;;;;;;;5060642;28;20472;-71
2022/05/20 13:28:25;;;;;;;9.00;5.40;;;;;;;;;;5061454;28;20547;-71
2022/05/20 13:30:52;;;;;;;2.77;1.57;;;;;;;;;;5067108;28;20484;-72
2022/05/20 13:33:20;;;;;;;3.43;2.23;;;;;;;;;;5064468;28;20514;-71
2022/05/20 13:35:53;;;;;;;3.27;1.83;;;;;;;;;;5059621;28;20491;-71
2022/05/20 13:38:25;;;;;;;3.37;1.70;;;;;;;;;;5061160;28;20468;-70
2022/05/20 13:41:04;;;;;;;3.10;1.90;;;;;;;;;;5057990;28;20977;-72
2022/05/20 13:43:39;;;;;;;4.50;1.70;;;;;;;;;;5052415;28;20500;-72
2022/05/20 13:51:44;;;;;;;3.10;2.07;;;;;;;;;;5061887;28;20440;-72
2022/05/20 13:54:20;;;;;;;4.30;2.07;;;;;;;;;;5067061;28;20569;-71
2022/05/20 13:56:50;;;;;;;3.37;1.47;;;;;;;;;;5056440;28;20562;-71
2022/05/20 13:59:24;;;;;;;3.20;1.90;;;;;;;;;;5054833;28;20688;-72
2022/05/20 14:01:53;;;;;;;3.70;1.70;;;;;;;;;;5071510;28;20456;-71
2022/05/20 14:04:21;;;;;;;7.10;2.30;;;;;;;;;;5064449;28;20523;-72
2022/05/20 14:06:52;;;;;;;4.53;2.33;;;;;;;;;;5066348;28;20773;-72
2022/05/20 14:09:21;;;;;;;6.93;2.30;;;;;;;;;;5073305;28;20571;-72
2022/05/20 14:11:57;;;;;;;3.57;2.30;;;;;;;;;;5056998;28;20874;-70
2022/05/20 14:14:33;;;;;;;3.57;1.90;;;;;;;;;;5065297;28;20873;-70
2022/05/20 14:17:02;;;;;;;3.00;1.80;;;;;;;;;;5059841;28;20848;-69
2022/05/20 14:19:36;;;;;;;10.70;6.97;;;;;;;;;;5060132;28;20445;-71
2022/05/20 14:22:05;;;;;;;4.03;2.10;;;;;;;;;;5057081;28;20566;-71
2022/05/20 14:24:39;;;;;;;4.37;2.30;;;;;;;;;;5065674;28;20456;-68
2022/05/20 14:27:27;;;;;;;3.37;1.67;;;;;;;;;;5064990;28;20462;-71
2022/05/20 14:29:57;;;;;;;3.23;1.37;;;;;;;;;;5061091;28;20940;-71
2022/05/20 14:32:34;;;;;;;2.40;1.57;;;;;;;;;;5067771;28;20458;-72
2022/05/20 14:35:02;;;;;;;3.17;1.50;;;;;;;;;;5057625;28;20453;-72
2022/05/20 14:37:35;;;;;;;5.30;1.87;;;;;;;;;;5072882;28;20945;-71
2022/05/20 14:40:08;;;;;;;4.17;2.10;;;;;;;;;;5076601;28;20494;-72
2022/05/20 14:42:41;;;;;;;5.30;2.10;;;;;;;;;;5065321;28;20469;-72
2022/05/20 14:50:53;;;;;;;4.33;1.97;;;;;;;;;;5043680;28;20500;-71
2022/05/20 14:53:24;;;;;;;5.17;2.20;;;;;;;;;;5062619;28;20449;-71
2022/05/20 14:55:56;;;;;;;2.87;1.67;;;;;;;;;;5066212;28;20462;-71
2022/05/20 14:58:31;;;;;;;3.40;1.77;;;;;;;;;;5057640;28;20461;-71
2022/05/20 15:01:00;;;;;;;3.17;1.73;;;;;;;;;;5074229;28;20449;-72
2022/05/20 15:03:36;;;;;;;4.40;2.43;;;;;;;;;;5072053;28;20457;-71
2022/05/20 15:06:08;;;;;;;3.23;2.50;;;;;;;;;;5061075;28;20465;-72
2022/05/20 15:08:39;;;;;;;7.10;2.67;;;;;;;;;;5055214;28;20468;-71
2022/05/20 15:11:19;;;;;;;2.30;1.40;;;;;;;;;;5062066;28;20489;-73
2022/05/20 15:13:49;;;;;;;3.47;1.67;;;;;;;;;;5055484;28;20477;-71
2022/05/20 15:16:17;;;;;;;4.80;1.87;;;;;;;;;;5055525;28;20462;-72
2022/05/20 15:18:49;;;;;;;3.00;1.87;;;;;;;;;;5060293;28;20469;-72
2022/05/20 15:21:23;;;;;;;3.87;2.00;;;;;;;;;;5061250;28;20756;-70
2022/05/20 15:23:52;;;;;;;2.60;1.87;;;;;;;;;;5055440;28;20481;-71
2022/05/20 15:26:27;;;;;;;3.00;1.80;;;;;;;;;;5060444;28;20936;-72
2022/05/20 15:28:56;;;;;;;2.73;2.00;;;;;;;;;;5068195;28;20448;-71
2022/05/20 15:37:00;;;;;;;2.90;2.00;;;;;;;;;;5063411;28;20440;-70
2022/05/20 15:39:31;;;;;;;2.73;1.60;;;;;;;;;;5066019;28;20453;-72
2022/05/20 15:42:02;;;;;;;3.17;2.70;;;;;;;;;;5055817;28;20472;-71
2022/05/20 15:44:30;;;;;;;4.27;2.20;;;;;;;;;;5059902;28;20814;-72
2022/05/20 15:47:01;;;;;;;4.30;2.20;;;;;;;;;;5071941;28;20513;-72
2022/05/20 15:49:32;;;;;;;2.80;1.90;;;;;;;;;;5066798;28;20542;-71
2022/05/20 15:52:11;;;;;;;2.60;1.80;;;;;;;;;;5069994;28;20456;-71
2022/05/20 15:54:52;;;;;;;7.87;2.20;;;;;;;;;;5063718;28;20472;-71
2022/05/20 15:57:32;;;;;;;4.27;2.37;;;;;;;;;;5069217;28;20452;-70
2022/05/20 16:00:04;;;;;;;2.30;1.57;;;;;;;;;;5076772;28;20448;-71
2022/05/20 16:02:33;;;;;;;3.43;1.93;;;;;;;;;;5071258;28;20473;-70
2022/05/20 16:05:20;;;;;;;6.40;3.17;;;;;;;;;;5058917;28;20464;-70
2022/05/20 16:08:01;;;;;;;3.07;1.87;;;;;;;;;;5063843;28;20460;-69
2022/05/20 16:13:34;;;;;;;3.10;2.17;;;;;;;;;;5057757;28;20457;-70